sensor_id;sensor_type;location;lat;lon;timestamp;P1;durP1;ratioP1;P2;durP2;ratioP2
17347;SDS011;8791;50.876;4.342;2023-03-11T00:01:40;11.13;;;2.83;;
17347;SDS011;8791;50.876;4.342;2023-03-11T00:04:08;8.17;;;3.00;;
17347;SDS011;8791;50.876;4.342;2023-03-11T00:06:36;5.83;;;2.70;;
17347;SDS011;8791;50.876;4.342;2023-03-11T00:09:03;14.53;;;3.30;;
17347;SDS011;8791;50.876;4.342;2023-03-11T00:11:30;8.77;;;2.50;;
17347;SDS011;8791;50.876;4.342;2023-03-11T00:13:57;8.50;;;2.80;;
17347;SDS011;8791;50.876;4.342;2023-03-11T00:16:24;7.80;;;2.80;;
17347;SDS011;8791;50.876;4.342;2023-03-11T00:18:51;7.77;;;2.53;;
17347;SDS011;8791;50.876;4.342;2023-03-11T00:21:19;9.53;;;2.53;;
17347;SDS011;8791;50.876;4.342;2023-03-11T00:23:46;10.70;;;2.60;;
17347;SDS011;8791;50.876;4.342;2023-03-11T00:26:13;9.73;;;2.60;;
17347;SDS011;8791;50.876;4.342;2023-03-11T00:28:40;5.47;;;2.40;;
17347;SDS011;8791;50.876;4.342;2023-03-11T00:31:07;11.97;;;3.20;;
17347;SDS011;8791;50.876;4.342;2023-03-11T00:33:33;7.07;;;2.30;;
17347;SDS011;8791;50.876;4.342;2023-03-11T00:36:00;13.57;;;4.40;;
17347;SDS011;8791;50.876;4.342;2023-03-11T00:38:29;12.07;;;2.57;;
17347;SDS011;8791;50.876;4.342;2023-03-11T00:40:57;9.77;;;2.90;;
17347;SDS011;8791;50.876;4.342;2023-03-11T00:43:25;8.43;;;5.10;;
17347;SDS011;8791;50.876;4.342;2023-03-11T00:45:52;5.73;;;2.50;;
17347;SDS011;8791;50.876;4.342;2023-03-11T00:48:19;4.60;;;2.17;;
17347;SDS011;8791;50.876;4.342;2023-03-11T00:50:46;11.60;;;2.57;;
17347;SDS011;8791;50.876;4.342;2023-03-11T00:53:13;10.53;;;2.57;;
17347;SDS011;8791;50.876;4.342;2023-03-11T00:55:41;8.80;;;2.50;;
17347;SDS011;8791;50.876;4.342;2023-03-11T00:58:09;14.57;;;2.40;;
17347;SDS011;8791;50.876;4.342;2023-03-11T01:00:36;6.97;;;2.70;;
17347;SDS011;8791;50.876;4.342;2023-03-11T01:03:03;12.83;;;2.63;;
17347;SDS011;8791;50.876;4.342;2023-03-11T01:05:31;8.13;;;2.60;;
17347;SDS011;8791;50.876;4.342;2023-03-11T01:07:59;8.63;;;2.53;;
17347;SDS011;8791;50.876;4.342;2023-03-11T01:10:27;13.07;;;2.30;;
17347;SDS011;8791;50.876;4.342;2023-03-11T01:12:56;11.30;;;2.80;;
17347;SDS011;8791;50.876;4.342;2023-03-11T01:15:24;12.07;;;2.40;;
17347;SDS011;8791;50.876;4.342;2023-03-11T01:17:53;7.77;;;2.37;;
17347;SDS011;8791;50.876;4.342;2023-03-11T01:20:20;14.10;;;2.80;;
17347;SDS011;8791;50.876;4.342;2023-03-11T01:22:47;4.13;;;2.20;;
17347;SDS011;8791;50.876;4.342;2023-03-11T01:25:15;5.23;;;2.53;;
17347;SDS011;8791;50.876;4.342;2023-03-11T01:27:44;13.57;;;3.57;;
17347;SDS011;8791;50.876;4.342;2023-03-11T01:30:13;10.77;;;2.93;;
17347;SDS011;8791;50.876;4.342;2023-03-11T01:32:42;15.37;;;3.33;;
17347;SDS011;8791;50.876;4.342;2023-03-11T01:35:09;4.50;;;2.90;;
17347;SDS011;8791;50.876;4.342;2023-03-11T01:37:37;6.83;;;2.30;;
17347;SDS011;8791;50.876;4.342;2023-03-11T01:40:04;11.30;;;2.50;;
17347;SDS011;8791;50.876;4.342;2023-03-11T01:42:33;9.27;;;2.63;;
17347;SDS011;8791;50.876;4.342;2023-03-11T01:45:00;9.67;;;2.77;;
17347;SDS011;8791;50.876;4.342;2023-03-11T01:47:38;13.33;;;3.20;;
17347;SDS011;8791;50.876;4.342;2023-03-11T01:50:06;7.90;;;2.70;;
17347;SDS011;8791;50.876;4.342;2023-03-11T01:52:37;8.13;;;3.47;;
17347;SDS011;8791;50.876;4.342;2023-03-11T01:55:06;12.60;;;3.03;;
17347;SDS011;8791;50.876;4.342;2023-03-11T01:57:35;8.50;;;3.43;;
17347;SDS011;8791;50.876;4.342;2023-03-11T02:00:05;9.43;;;3.10;;
17347;SDS011;8791;50.876;4.342;2023-03-11T02:02:35;13.43;;;3.53;;
17347;SDS011;8791;50.876;4.342;2023-03-11T02:05:06;6.63;;;3.20;;
17347;SDS011;8791;50.876;4.342;2023-03-11T02:07:34;19.30;;;3.30;;
17347;SDS011;8791;50.876;4.342;2023-03-11T02:10:03;6.33;;;3.10;;
17347;SDS011;8791;50.876;4.342;2023-03-11T02:12:32;8.40;;;3.07;;
17347;SDS011;8791;50.876;4.342;2023-03-11T02:15:00;8.37;;;2.90;;
17347;SDS011;8791;50.876;4.342;2023-03-11T02:17:29;15.10;;;2.80;;
17347;SDS011;8791;50.876;4.342;2023-03-11T02:20:01;10.03;;;2.97;;
17347;SDS011;8791;50.876;4.342;2023-03-11T02:22:40;12.57;;;3.20;;
17347;SDS011;8791;50.876;4.342;2023-03-11T02:25:10;11.67;;;3.20;;
17347;SDS011;8791;50.876;4.342;2023-03-11T02:27:48;10.87;;;3.80;;
17347;SDS011;8791;50.876;4.342;2023-03-11T02:30:17;8.23;;;3.60;;
17347;SDS011;8791;50.876;4.342;2023-03-11T02:32:46;8.07;;;2.90;;
17347;SDS011;8791;50.876;4.342;2023-03-11T02:35:13;12.87;;;3.40;;
17347;SDS011;8791;50.876;4.342;2023-03-11T02:37:44;10.57;;;3.17;;
17347;SDS011;8791;50.876;4.342;2023-03-11T02:43:17;8.10;;;3.40;;
17347;SDS011;8791;50.876;4.342;2023-03-11T02:45:47;10.97;;;3.30;;
17347;SDS011;8791;50.876;4.342;2023-03-11T02:48:15;8.07;;;3.20;;
17347;SDS011;8791;50.876;4.342;2023-03-11T02:50:42;12.63;;;2.80;;
17347;SDS011;8791;50.876;4.342;2023-03-11T02:53:11;12.33;;;3.20;;
17347;SDS011;8791;50.876;4.342;2023-03-11T02:55:37;14.40;;;4.63;;
17347;SDS011;8791;50.876;4.342;2023-03-11T02:58:04;22.20;;;3.63;;
17347;SDS011;8791;50.876;4.342;2023-03-11T03:00:33;10.73;;;4.47;;
17347;SDS011;8791;50.876;4.342;2023-03-11T03:02:59;15.37;;;4.23;;
17347;SDS011;8791;50.876;4.342;2023-03-11T03:05:26;9.60;;;3.50;;
17347;SDS011;8791;50.876;4.342;2023-03-11T03:07:53;10.23;;;3.40;;
17347;SDS011;8791;50.876;4.342;2023-03-11T03:10:20;8.70;;;3.47;;
17347;SDS011;8791;50.876;4.342;2023-03-11T03:12:47;10.37;;;3.83;;
17347;SDS011;8791;50.876;4.342;2023-03-11T03:15:14;10.07;;;3.03;;
17347;SDS011;8791;50.876;4.342;2023-03-11T03:17:43;11.37;;;3.83;;
17347;SDS011;8791;50.876;4.342;2023-03-11T03:20:10;7.67;;;3.10;;
17347;SDS011;8791;50.876;4.342;2023-03-11T03:22:38;11.57;;;3.50;;
17347;SDS011;8791;50.876;4.342;2023-03-11T03:25:06;8.63;;;3.03;;
17347;SDS011;8791;50.876;4.342;2023-03-11T03:27:34;8.47;;;3.50;;
17347;SDS011;8791;50.876;4.342;2023-03-11T03:30:01;7.33;;;3.00;;
17347;SDS011;8791;50.876;4.342;2023-03-11T03:32:29;12.83;;;3.50;;
17347;SDS011;8791;50.876;4.342;2023-03-11T03:34:57;8.10;;;3.20;;
17347;SDS011;8791;50.876;4.342;2023-03-11T03:37:24;9.60;;;3.37;;
17347;SDS011;8791;50.876;4.342;2023-03-11T03:39:52;10.03;;;3.30;;
17347;SDS011;8791;50.876;4.342;2023-03-11T03:42:20;6.33;;;2.80;;
17347;SDS011;8791;50.876;4.342;2023-03-11T03:44:49;10.40;;;3.73;;
17347;SDS011;8791;50.876;4.342;2023-03-11T03:47:19;15.93;;;3.53;;
17347;SDS011;8791;50.876;4.342;2023-03-11T03:49:46;14.67;;;3.40;;
17347;SDS011;8791;50.876;4.342;2023-03-11T03:52:15;11.77;;;3.70;;
17347;SDS011;8791;50.876;4.342;2023-03-11T03:54:42;9.00;;;3.40;;
17347;SDS011;8791;50.876;4.342;2023-03-11T03:57:09;10.47;;;3.90;;
17347;SDS011;8791;50.876;4.342;2023-03-11T03:59:36;14.37;;;3.33;;
17347;SDS011;8791;50.876;4.342;2023-03-11T04:02:03;7.73;;;3.57;;
17347;SDS011;8791;50.876;4.342;2023-03-11T04:04:30;6.53;;;3.30;;
17347;SDS011;8791;50.876;4.342;2023-03-11T04:06:57;8.00;;;3.03;;
17347;SDS011;8791;50.876;4.342;2023-03-11T04:09:25;6.50;;;3.07;;
17347;SDS011;8791;50.876;4.342;2023-03-11T04:11:52;7.47;;;4.00;;
17347;SDS011;8791;50.876;4.342;2023-03-11T04:14:19;11.73;;;3.60;;
17347;SDS011;8791;50.876;4.342;2023-03-11T04:16:46;14.80;;;3.50;;
17347;SDS011;8791;50.876;4.342;2023-03-11T04:19:12;8.67;;;3.73;;
17347;SDS011;8791;50.876;4.342;2023-03-11T04:21:39;10.83;;;3.60;;
17347;SDS011;8791;50.876;4.342;2023-03-11T04:24:06;12.70;;;3.83;;
17347;SDS011;8791;50.876;4.342;2023-03-11T04:26:35;14.40;;;3.60;;
17347;SDS011;8791;50.876;4.342;2023-03-11T04:29:02;9.00;;;4.03;;
17347;SDS011;8791;50.876;4.342;2023-03-11T04:31:29;8.87;;;3.40;;
17347;SDS011;8791;50.876;4.342;2023-03-11T04:33:55;20.23;;;4.07;;
17347;SDS011;8791;50.876;4.342;2023-03-11T04:36:22;12.93;;;4.03;;
17347;SDS011;8791;50.876;4.342;2023-03-11T04:38:49;6.63;;;3.40;;
17347;SDS011;8791;50.876;4.342;2023-03-11T04:41:16;8.53;;;4.47;;
17347;SDS011;8791;50.876;4.342;2023-03-11T04:43:44;11.40;;;3.87;;
17347;SDS011;8791;50.876;4.342;2023-03-11T04:46:11;14.03;;;4.23;;
17347;SDS011;8791;50.876;4.342;2023-03-11T04:48:37;11.03;;;3.47;;
17347;SDS011;8791;50.876;4.342;2023-03-11T04:51:04;13.90;;;4.40;;
17347;SDS011;8791;50.876;4.342;2023-03-11T04:53:31;9.67;;;4.63;;
17347;SDS011;8791;50.876;4.342;2023-03-11T04:55:58;12.07;;;4.27;;
17347;SDS011;8791;50.876;4.342;2023-03-11T04:58:25;13.33;;;3.97;;
17347;SDS011;8791;50.876;4.342;2023-03-11T05:00:53;17.70;;;5.17;;
17347;SDS011;8791;50.876;4.342;2023-03-11T05:03:21;11.03;;;3.90;;
17347;SDS011;8791;50.876;4.342;2023-03-11T05:05:48;9.23;;;4.00;;
17347;SDS011;8791;50.876;4.342;2023-03-11T05:08:17;14.00;;;4.20;;
17347;SDS011;8791;50.876;4.342;2023-03-11T05:10:44;11.03;;;4.33;;
17347;SDS011;8791;50.876;4.342;2023-03-11T05:13:10;9.80;;;4.30;;
17347;SDS011;8791;50.876;4.342;2023-03-11T05:15:37;13.30;;;4.90;;
17347;SDS011;8791;50.876;4.342;2023-03-11T05:18:07;9.70;;;4.37;;
17347;SDS011;8791;50.876;4.342;2023-03-11T05:20:34;18.43;;;4.40;;
17347;SDS011;8791;50.876;4.342;2023-03-11T05:23:01;9.23;;;4.30;;
17347;SDS011;8791;50.876;4.342;2023-03-11T05:25:28;12.73;;;5.30;;
17347;SDS011;8791;50.876;4.342;2023-03-11T05:27:55;18.93;;;5.40;;
17347;SDS011;8791;50.876;4.342;2023-03-11T05:30:22;13.17;;;5.07;;
17347;SDS011;8791;50.876;4.342;2023-03-11T05:32:49;9.87;;;4.50;;
17347;SDS011;8791;50.876;4.342;2023-03-11T05:35:18;8.13;;;4.70;;
17347;SDS011;8791;50.876;4.342;2023-03-11T05:37:45;17.60;;;4.93;;
17347;SDS011;8791;50.876;4.342;2023-03-11T05:40:14;12.00;;;4.47;;
17347;SDS011;8791;50.876;4.342;2023-03-11T05:42:41;14.43;;;4.57;;
17347;SDS011;8791;50.876;4.342;2023-03-11T05:45:09;16.50;;;5.10;;
17347;SDS011;8791;50.876;4.342;2023-03-11T05:47:36;10.00;;;4.87;;
17347;SDS011;8791;50.876;4.342;2023-03-11T05:50:06;10.33;;;4.03;;
17347;SDS011;8791;50.876;4.342;2023-03-11T05:52:35;15.83;;;4.30;;
17347;SDS011;8791;50.876;4.342;2023-03-11T05:55:02;16.20;;;5.30;;
17347;SDS011;8791;50.876;4.342;2023-03-11T05:57:30;16.40;;;4.30;;
17347;SDS011;8791;50.876;4.342;2023-03-11T05:59:57;19.17;;;5.03;;
17347;SDS011;8791;50.876;4.342;2023-03-11T06:02:24;9.53;;;4.80;;
17347;SDS011;8791;50.876;4.342;2023-03-11T06:04:53;11.07;;;4.93;;
17347;SDS011;8791;50.876;4.342;2023-03-11T06:07:21;14.07;;;4.93;;
17347;SDS011;8791;50.876;4.342;2023-03-11T06:09:50;12.37;;;4.90;;
17347;SDS011;8791;50.876;4.342;2023-03-11T06:12:17;12.53;;;5.23;;
17347;SDS011;8791;50.876;4.342;2023-03-11T06:14:44;20.67;;;5.03;;
17347;SDS011;8791;50.876;4.342;2023-03-11T06:17:11;10.87;;;5.73;;
17347;SDS011;8791;50.876;4.342;2023-03-11T06:19:38;10.47;;;5.43;;
17347;SDS011;8791;50.876;4.342;2023-03-11T06:22:05;11.60;;;4.73;;
17347;SDS011;8791;50.876;4.342;2023-03-11T06:24:32;14.87;;;5.00;;
17347;SDS011;8791;50.876;4.342;2023-03-11T06:27:00;13.67;;;4.90;;
17347;SDS011;8791;50.876;4.342;2023-03-11T06:29:27;7.23;;;4.17;;
17347;SDS011;8791;50.876;4.342;2023-03-11T06:31:54;9.67;;;4.47;;
17347;SDS011;8791;50.876;4.342;2023-03-11T06:34:21;9.47;;;4.77;;
17347;SDS011;8791;50.876;4.342;2023-03-11T06:36:48;15.40;;;4.93;;
17347;SDS011;8791;50.876;4.342;2023-03-11T06:39:15;14.67;;;5.20;;
17347;SDS011;8791;50.876;4.342;2023-03-11T06:41:42;13.37;;;5.03;;
17347;SDS011;8791;50.876;4.342;2023-03-11T06:44:10;14.23;;;4.77;;
17347;SDS011;8791;50.876;4.342;2023-03-11T06:46:37;22.20;;;5.03;;
17347;SDS011;8791;50.876;4.342;2023-03-11T06:49:04;11.20;;;5.30;;
17347;SDS011;8791;50.876;4.342;2023-03-11T06:51:31;18.40;;;5.90;;
17347;SDS011;8791;50.876;4.342;2023-03-11T06:53:58;13.50;;;5.73;;
17347;SDS011;8791;50.876;4.342;2023-03-11T06:56:24;14.33;;;6.00;;
17347;SDS011;8791;50.876;4.342;2023-03-11T06:58:52;12.03;;;5.90;;
17347;SDS011;8791;50.876;4.342;2023-03-11T07:01:21;10.33;;;5.07;;
17347;SDS011;8791;50.876;4.342;2023-03-11T07:03:48;16.63;;;5.97;;
17347;SDS011;8791;50.876;4.342;2023-03-11T07:06:17;15.00;;;5.60;;
17347;SDS011;8791;50.876;4.342;2023-03-11T07:08:46;24.87;;;6.07;;
17347;SDS011;8791;50.876;4.342;2023-03-11T07:11:14;8.23;;;5.43;;
17347;SDS011;8791;50.876;4.342;2023-03-11T07:13:42;14.43;;;6.07;;
17347;SDS011;8791;50.876;4.342;2023-03-11T07:16:10;12.93;;;5.47;;
17347;SDS011;8791;50.876;4.342;2023-03-11T07:18:41;13.63;;;5.60;;
17347;SDS011;8791;50.876;4.342;2023-03-11T07:21:09;16.30;;;5.97;;
17347;SDS011;8791;50.876;4.342;2023-03-11T07:23:39;17.90;;;5.70;;
17347;SDS011;8791;50.876;4.342;2023-03-11T07:26:07;15.10;;;5.73;;
17347;SDS011;8791;50.876;4.342;2023-03-11T07:28:35;13.13;;;5.23;;
17347;SDS011;8791;50.876;4.342;2023-03-11T07:31:06;14.57;;;4.93;;
17347;SDS011;8791;50.876;4.342;2023-03-11T07:33:33;14.63;;;5.10;;
17347;SDS011;8791;50.876;4.342;2023-03-11T07:36:05;8.37;;;4.83;;
17347;SDS011;8791;50.876;4.342;2023-03-11T07:38:32;12.10;;;4.87;;
17347;SDS011;8791;50.876;4.342;2023-03-11T07:40:59;6.83;;;4.80;;
17347;SDS011;8791;50.876;4.342;2023-03-11T07:43:26;14.43;;;5.30;;
17347;SDS011;8791;50.876;4.342;2023-03-11T07:46:00;9.43;;;5.33;;
17347;SDS011;8791;50.876;4.342;2023-03-11T07:48:28;11.20;;;5.50;;
17347;SDS011;8791;50.876;4.342;2023-03-11T07:50:58;12.57;;;5.30;;
17347;SDS011;8791;50.876;4.342;2023-03-11T07:53:27;19.47;;;6.43;;
17347;SDS011;8791;50.876;4.342;2023-03-11T07:55:54;15.77;;;5.30;;
17347;SDS011;8791;50.876;4.342;2023-03-11T07:58:22;14.87;;;5.20;;
17347;SDS011;8791;50.876;4.342;2023-03-11T08:00:49;12.30;;;5.60;;
17347;SDS011;8791;50.876;4.342;2023-03-11T08:03:17;13.90;;;5.10;;
17347;SDS011;8791;50.876;4.342;2023-03-11T08:05:43;12.90;;;5.03;;
17347;SDS011;8791;50.876;4.342;2023-03-11T08:08:10;21.13;;;5.67;;
17347;SDS011;8791;50.876;4.342;2023-03-11T08:10:38;9.83;;;5.60;;
17347;SDS011;8791;50.876;4.342;2023-03-11T08:13:05;10.93;;;6.00;;
17347;SDS011;8791;50.876;4.342;2023-03-11T08:15:32;12.30;;;4.93;;
17347;SDS011;8791;50.876;4.342;2023-03-11T08:17:59;14.57;;;5.53;;
17347;SDS011;8791;50.876;4.342;2023-03-11T08:20:26;62.47;;;27.63;;
17347;SDS011;8791;50.876;4.342;2023-03-11T08:22:53;94.57;;;33.97;;
17347;SDS011;8791;50.876;4.342;2023-03-11T08:25:20;41.33;;;16.43;;
17347;SDS011;8791;50.876;4.342;2023-03-11T08:27:48;20.63;;;7.03;;
17347;SDS011;8791;50.876;4.342;2023-03-11T08:30:15;21.33;;;8.03;;
17347;SDS011;8791;50.876;4.342;2023-03-11T08:32:42;13.23;;;6.50;;
17347;SDS011;8791;50.876;4.342;2023-03-11T08:35:09;9.53;;;5.40;;
17347;SDS011;8791;50.876;4.342;2023-03-11T08:37:36;11.70;;;5.77;;
17347;SDS011;8791;50.876;4.342;2023-03-11T08:40:03;11.73;;;5.30;;
17347;SDS011;8791;50.876;4.342;2023-03-11T08:42:31;15.87;;;6.07;;
17347;SDS011;8791;50.876;4.342;2023-03-11T08:44:59;12.13;;;6.10;;
17347;SDS011;8791;50.876;4.342;2023-03-11T08:47:26;12.80;;;5.90;;
17347;SDS011;8791;50.876;4.342;2023-03-11T08:49:53;12.97;;;5.87;;
17347;SDS011;8791;50.876;4.342;2023-03-11T08:52:20;12.60;;;6.33;;
17347;SDS011;8791;50.876;4.342;2023-03-11T08:54:47;14.33;;;6.17;;
17347;SDS011;8791;50.876;4.342;2023-03-11T08:57:14;21.53;;;5.07;;
17347;SDS011;8791;50.876;4.342;2023-03-11T08:59:40;15.80;;;5.27;;
17347;SDS011;8791;50.876;4.342;2023-03-11T09:02:09;13.60;;;4.17;;
17347;SDS011;8791;50.876;4.342;2023-03-11T09:04:36;14.77;;;3.77;;
17347;SDS011;8791;50.876;4.342;2023-03-11T09:07:03;11.73;;;3.50;;
17347;SDS011;8791;50.876;4.342;2023-03-11T09:09:30;12.50;;;3.70;;
17347;SDS011;8791;50.876;4.342;2023-03-11T09:11:58;15.00;;;3.93;;
17347;SDS011;8791;50.876;4.342;2023-03-11T09:14:24;8.20;;;3.53;;
17347;SDS011;8791;50.876;4.342;2023-03-11T09:16:51;9.40;;;4.33;;
17347;SDS011;8791;50.876;4.342;2023-03-11T09:19:19;8.57;;;3.07;;
17347;SDS011;8791;50.876;4.342;2023-03-11T09:21:46;10.23;;;3.43;;
17347;SDS011;8791;50.876;4.342;2023-03-11T09:24:13;20.77;;;4.00;;
17347;SDS011;8791;50.876;4.342;2023-03-11T09:26:40;13.73;;;3.37;;
17347;SDS011;8791;50.876;4.342;2023-03-11T09:29:07;6.70;;;2.10;;
17347;SDS011;8791;50.876;4.342;2023-03-11T09:31:34;5.57;;;1.10;;
17347;SDS011;8791;50.876;4.342;2023-03-11T09:34:02;6.57;;;1.27;;
17347;SDS011;8791;50.876;4.342;2023-03-11T09:36:31;9.07;;;3.30;;
17347;SDS011;8791;50.876;4.342;2023-03-11T09:38:59;7.83;;;1.57;;
17347;SDS011;8791;50.876;4.342;2023-03-11T09:41:28;5.87;;;1.97;;
17347;SDS011;8791;50.876;4.342;2023-03-11T09:44:08;6.93;;;1.73;;
17347;SDS011;8791;50.876;4.342;2023-03-11T09:49:54;7.93;;;2.00;;
17347;SDS011;8791;50.876;4.342;2023-03-11T09:52:34;6.97;;;2.00;;
17347;SDS011;8791;50.876;4.342;2023-03-11T09:55:11;4.53;;;2.33;;
17347;SDS011;8791;50.876;4.342;2023-03-11T09:58:08;7.10;;;2.07;;
17347;SDS011;8791;50.876;4.342;2023-03-11T10:00:38;9.63;;;2.17;;
17347;SDS011;8791;50.876;4.342;2023-03-11T10:03:09;6.67;;;2.30;;
17347;SDS011;8791;50.876;4.342;2023-03-11T10:05:42;6.43;;;2.27;;
17347;SDS011;8791;50.876;4.342;2023-03-11T10:08:14;13.30;;;2.50;;
17347;SDS011;8791;50.876;4.342;2023-03-11T10:10:49;7.97;;;2.03;;
17347;SDS011;8791;50.876;4.342;2023-03-11T10:13:25;6.70;;;1.97;;
17347;SDS011;8791;50.876;4.342;2023-03-11T10:15:57;10.70;;;3.13;;
17347;SDS011;8791;50.876;4.342;2023-03-11T10:18:35;13.60;;;1.90;;
17347;SDS011;8791;50.876;4.342;2023-03-11T10:21:14;7.73;;;1.97;;
17347;SDS011;8791;50.876;4.342;2023-03-11T10:23:59;9.73;;;2.10;;
17347;SDS011;8791;50.876;4.342;2023-03-11T10:26:40;15.47;;;2.27;;
17347;SDS011;8791;50.876;4.342;2023-03-11T10:29:13;11.10;;;2.07;;
17347;SDS011;8791;50.876;4.342;2023-03-11T10:31:45;6.00;;;1.90;;
17347;SDS011;8791;50.876;4.342;2023-03-11T10:34:18;4.77;;;2.10;;
17347;SDS011;8791;50.876;4.342;2023-03-11T10:36:52;7.20;;;1.97;;
17347;SDS011;8791;50.876;4.342;2023-03-11T10:39:25;14.53;;;3.03;;
17347;SDS011;8791;50.876;4.342;2023-03-11T10:41:53;5.67;;;2.40;;
17347;SDS011;8791;50.876;4.342;2023-03-11T10:44:23;5.97;;;2.20;;
17347;SDS011;8791;50.876;4.342;2023-03-11T10:46:54;10.00;;;2.30;;
17347;SDS011;8791;50.876;4.342;2023-03-11T10:49:21;8.50;;;2.23;;
17347;SDS011;8791;50.876;4.342;2023-03-11T10:51:49;6.93;;;2.20;;
17347;SDS011;8791;50.876;4.342;2023-03-11T10:54:22;8.17;;;2.27;;
17347;SDS011;8791;50.876;4.342;2023-03-11T10:56:54;9.27;;;2.50;;
17347;SDS011;8791;50.876;4.342;2023-03-11T10:59:24;4.03;;;1.70;;
17347;SDS011;8791;50.876;4.342;2023-03-11T11:01:54;9.33;;;3.40;;
17347;SDS011;8791;50.876;4.342;2023-03-11T11:04:27;9.83;;;2.57;;
17347;SDS011;8791;50.876;4.342;2023-03-11T11:06:55;11.30;;;2.20;;
17347;SDS011;8791;50.876;4.342;2023-03-11T11:09:24;8.97;;;2.23;;
17347;SDS011;8791;50.876;4.342;2023-03-11T11:12:04;15.83;;;2.23;;
17347;SDS011;8791;50.876;4.342;2023-03-11T11:14:45;17.73;;;2.60;;
17347;SDS011;8791;50.876;4.342;2023-03-11T11:17:20;8.13;;;2.60;;
17347;SDS011;8791;50.876;4.342;2023-03-11T11:19:50;10.97;;;2.30;;
17347;SDS011;8791;50.876;4.342;2023-03-11T11:22:18;7.73;;;2.23;;
17347;SDS011;8791;50.876;4.342;2023-03-11T11:24:48;4.70;;;2.33;;
17347;SDS011;8791;50.876;4.342;2023-03-11T11:27:19;7.67;;;2.40;;
17347;SDS011;8791;50.876;4.342;2023-03-11T11:29:48;4.47;;;2.10;;
17347;SDS011;8791;50.876;4.342;2023-03-11T11:32:36;6.80;;;2.70;;
17347;SDS011;8791;50.876;4.342;2023-03-11T11:35:04;10.90;;;2.50;;
17347;SDS011;8791;50.876;4.342;2023-03-11T11:37:33;8.90;;;2.07;;
17347;SDS011;8791;50.876;4.342;2023-03-11T11:40:02;14.17;;;2.40;;
17347;SDS011;8791;50.876;4.342;2023-03-11T11:42:36;10.13;;;2.27;;
17347;SDS011;8791;50.876;4.342;2023-03-11T11:45:09;7.57;;;2.53;;
17347;SDS011;8791;50.876;4.342;2023-03-11T11:47:40;6.30;;;2.27;;
17347;SDS011;8791;50.876;4.342;2023-03-11T11:50:12;9.20;;;2.50;;
17347;SDS011;8791;50.876;4.342;2023-03-11T11:52:43;9.40;;;2.23;;
17347;SDS011;8791;50.876;4.342;2023-03-11T11:55:17;6.40;;;1.70;;
17347;SDS011;8791;50.876;4.342;2023-03-11T11:57:47;6.23;;;1.97;;
17347;SDS011;8791;50.876;4.342;2023-03-11T12:00:16;4.90;;;1.73;;
17347;SDS011;8791;50.876;4.342;2023-03-11T12:02:51;4.77;;;1.67;;
17347;SDS011;8791;50.876;4.342;2023-03-11T12:05:31;6.73;;;1.77;;
17347;SDS011;8791;50.876;4.342;2023-03-11T12:08:08;4.77;;;1.33;;
17347;SDS011;8791;50.876;4.342;2023-03-11T12:10:42;12.47;;;2.17;;
17347;SDS011;8791;50.876;4.342;2023-03-11T12:13:20;6.60;;;2.07;;
17347;SDS011;8791;50.876;4.342;2023-03-11T12:16:11;9.10;;;1.80;;
17347;SDS011;8791;50.876;4.342;2023-03-11T12:18:45;5.60;;;2.27;;
17347;SDS011;8791;50.876;4.342;2023-03-11T12:21:21;10.33;;;2.00;;
17347;SDS011;8791;50.876;4.342;2023-03-11T12:24:04;4.97;;;2.17;;
17347;SDS011;8791;50.876;4.342;2023-03-11T12:26:42;7.77;;;2.00;;
17347;SDS011;8791;50.876;4.342;2023-03-11T12:29:15;8.10;;;1.93;;
17347;SDS011;8791;50.876;4.342;2023-03-11T12:31:49;5.10;;;1.43;;
17347;SDS011;8791;50.876;4.342;2023-03-11T12:34:18;7.93;;;2.03;;
17347;SDS011;8791;50.876;4.342;2023-03-11T12:36:47;9.17;;;1.97;;
17347;SDS011;8791;50.876;4.342;2023-03-11T12:39:19;11.47;;;1.87;;
17347;SDS011;8791;50.876;4.342;2023-03-11T12:41:53;4.43;;;2.50;;
17347;SDS011;8791;50.876;4.342;2023-03-11T12:44:42;4.53;;;1.53;;
17347;SDS011;8791;50.876;4.342;2023-03-11T12:47:25;4.90;;;1.20;;
17347;SDS011;8791;50.876;4.342;2023-03-11T12:49:53;9.20;;;1.87;;
17347;SDS011;8791;50.876;4.342;2023-03-11T12:52:26;7.73;;;2.40;;
17347;SDS011;8791;50.876;4.342;2023-03-11T12:57:52;10.77;;;2.00;;
17347;SDS011;8791;50.876;4.342;2023-03-11T13:00:27;6.83;;;1.80;;
17347;SDS011;8791;50.876;4.342;2023-03-11T13:03:26;7.70;;;1.70;;
17347;SDS011;8791;50.876;4.342;2023-03-11T13:06:12;9.83;;;1.93;;
17347;SDS011;8791;50.876;4.342;2023-03-11T13:08:48;6.37;;;1.90;;
17347;SDS011;8791;50.876;4.342;2023-03-11T13:11:25;13.27;;;2.30;;
17347;SDS011;8791;50.876;4.342;2023-03-11T13:16:57;4.83;;;1.70;;
17347;SDS011;8791;50.876;4.342;2023-03-11T13:19:50;9.70;;;2.00;;
17347;SDS011;8791;50.876;4.342;2023-03-11T13:22:38;4.37;;;1.60;;
17347;SDS011;8791;50.876;4.342;2023-03-11T13:25:31;6.53;;;1.87;;
17347;SDS011;8791;50.876;4.342;2023-03-11T13:28:06;6.63;;;1.90;;
17347;SDS011;8791;50.876;4.342;2023-03-11T13:30:55;4.77;;;1.60;;
17347;SDS011;8791;50.876;4.342;2023-03-11T13:33:35;6.10;;;2.10;;
17347;SDS011;8791;50.876;4.342;2023-03-11T13:36:16;15.30;;;1.83;;
17347;SDS011;8791;50.876;4.342;2023-03-11T13:38:55;5.10;;;1.83;;
17347;SDS011;8791;50.876;4.342;2023-03-11T13:41:45;6.97;;;1.80;;
17347;SDS011;8791;50.876;4.342;2023-03-11T13:44:14;7.23;;;1.87;;
17347;SDS011;8791;50.876;4.342;2023-03-11T13:46:50;5.57;;;1.80;;
17347;SDS011;8791;50.876;4.342;2023-03-11T13:49:29;3.80;;;1.73;;
17347;SDS011;8791;50.876;4.342;2023-03-11T13:52:01;8.40;;;2.90;;
17347;SDS011;8791;50.876;4.342;2023-03-11T13:54:31;12.03;;;2.50;;
17347;SDS011;8791;50.876;4.342;2023-03-11T13:57:21;8.67;;;1.83;;
17347;SDS011;8791;50.876;4.342;2023-03-11T13:59:51;3.63;;;2.03;;
17347;SDS011;8791;50.876;4.342;2023-03-11T14:02:20;4.60;;;1.80;;
17347;SDS011;8791;50.876;4.342;2023-03-11T14:04:53;5.37;;;1.53;;
17347;SDS011;8791;50.876;4.342;2023-03-11T14:07:23;4.73;;;1.80;;
17347;SDS011;8791;50.876;4.342;2023-03-11T14:12:51;2.77;;;1.40;;
17347;SDS011;8791;50.876;4.342;2023-03-11T14:15:30;3.33;;;1.40;;
17347;SDS011;8791;50.876;4.342;2023-03-11T14:18:25;7.13;;;1.30;;
17347;SDS011;8791;50.876;4.342;2023-03-11T14:20:55;4.60;;;1.37;;
17347;SDS011;8791;50.876;4.342;2023-03-11T14:23:23;4.73;;;1.40;;
17347;SDS011;8791;50.876;4.342;2023-03-11T14:26:00;7.83;;;1.40;;
17347;SDS011;8791;50.876;4.342;2023-03-11T14:28:32;4.47;;;1.27;;
17347;SDS011;8791;50.876;4.342;2023-03-11T14:31:03;8.30;;;1.63;;
17347;SDS011;8791;50.876;4.342;2023-03-11T14:33:30;6.50;;;1.97;;
17347;SDS011;8791;50.876;4.342;2023-03-11T14:35:59;10.27;;;3.77;;
17347;SDS011;8791;50.876;4.342;2023-03-11T14:38:28;2.63;;;1.33;;
17347;SDS011;8791;50.876;4.342;2023-03-11T14:40:56;5.50;;;1.77;;
17347;SDS011;8791;50.876;4.342;2023-03-11T14:43:24;3.90;;;1.20;;
17347;SDS011;8791;50.876;4.342;2023-03-11T14:45:53;2.50;;;1.37;;
17347;SDS011;8791;50.876;4.342;2023-03-11T14:48:22;2.30;;;1.43;;
17347;SDS011;8791;50.876;4.342;2023-03-11T14:50:52;4.30;;;1.20;;
17347;SDS011;8791;50.876;4.342;2023-03-11T14:53:22;3.07;;;1.43;;
17347;SDS011;8791;50.876;4.342;2023-03-11T14:55:53;6.97;;;1.20;;
17347;SDS011;8791;50.876;4.342;2023-03-11T14:58:23;6.17;;;1.47;;
17347;SDS011;8791;50.876;4.342;2023-03-11T15:00:56;3.20;;;1.30;;
17347;SDS011;8791;50.876;4.342;2023-03-11T15:03:27;4.40;;;1.30;;
17347;SDS011;8791;50.876;4.342;2023-03-11T15:05:57;3.47;;;1.50;;
17347;SDS011;8791;50.876;4.342;2023-03-11T15:08:29;3.40;;;1.30;;
17347;SDS011;8791;50.876;4.342;2023-03-11T15:10:59;4.90;;;2.00;;
17347;SDS011;8791;50.876;4.342;2023-03-11T15:13:31;10.90;;;4.23;;
17347;SDS011;8791;50.876;4.342;2023-03-11T15:15:58;7.23;;;1.30;;
17347;SDS011;8791;50.876;4.342;2023-03-11T15:18:28;3.57;;;1.30;;
17347;SDS011;8791;50.876;4.342;2023-03-11T15:21:04;2.50;;;1.10;;
17347;SDS011;8791;50.876;4.342;2023-03-11T15:23:38;3.33;;;1.30;;
17347;SDS011;8791;50.876;4.342;2023-03-11T15:26:17;4.63;;;1.40;;
17347;SDS011;8791;50.876;4.342;2023-03-11T15:28:52;5.67;;;1.70;;